This is the latest recevied weather packets stored in our database for station/object YC2UTR-2. If no packets are shown the sender has not sent any weather packets the latest 10 day(s).
| Time | Temp. | Humidity | Pressure | Rain* | Wind** | Luminosity | Snow |
|---|---|---|---|---|---|---|---|
| 1788072881 | 32.22° C | 52% | 1013.7 hPa | - | - | - | - |
| 1788072581 | 32.78° C | 50% | 1013.9 hPa | - | - | - | - |
| 1788072281 | 33.89° C | 45% | 1013.9 hPa | - | - | - | - |
| 1788071981 | 33.33° C | 45% | 1013.9 hPa | - | - | - | - |
| 1788071681 | 32.78° C | 46% | 1013.9 hPa | - | - | - | - |
| 1788071381 | 32.78° C | 46% | 1014 hPa | - | - | - | - |
| 1788071081 | 33.33° C | 46% | 1014.2 hPa | - | - | - | - |
| 1788070781 | 32.78° C | 46% | 1014.2 hPa | - | - | - | - |
| 1788070481 | 32.78° C | 46% | 1014.4 hPa | - | - | - | - |
| 1788070181 | 33.33° C | 45% | 1014.4 hPa | - | - | - | - |
| 1788069881 | 32.78° C | 46% | 1014.5 hPa | - | - | - | - |
| 1788069581 | 33.33° C | 46% | 1014.6 hPa | - | - | - | - |
| 1788069281 | 32.78° C | 46% | 1014.6 hPa | - | - | - | - |
| 1788068981 | 33.33° C | 46% | 1014.8 hPa | - | - | - | - |
| 1788068681 | 32.22° C | 47% | 1014.9 hPa | - | - | - | - |
| 1788068381 | 32.22° C | 47% | 1014.9 hPa | - | - | - | - |
| 1788068081 | 32.22° C | 48% | 1015.1 hPa | - | - | - | - |
| 1788067781 | 32.22° C | 48% | 1015.1 hPa | - | - | - | - |
| 1788067481 | 31.67° C | 50% | 1015.2 hPa | - | - | - | - |
| 1788067181 | 31.11° C | 49% | 1015.3 hPa | - | - | - | - |
| 1788066881 | 31.11° C | 50% | 1015.4 hPa | - | - | - | - |
| 1788066581 | 31.67° C | 50% | 1015.4 hPa | - | - | - | - |
| 1788066281 | 31.67° C | 49% | 1015.5 hPa | - | - | - | - |
| 1788065981 | 32.22° C | 48% | 1015.6 hPa | - | - | - | - |
| 1788065681 | 31.67° C | 49% | 1015.7 hPa | - | - | - | - |
* Rain since midnight (hover to see other rain measurements)
** Current wind speed in m/s (hover to see current wind gust speed)